Time;durP1;ratioP1;P1;durP2;ratioP2;P2;SDS_P1;SDS_P2;PMS_P1;PMS_P2;Temp;Humidity;BMP_temperature;BMP_pressure;BME280_temperature;BME280_humidity;BME280_pressure;Samples;Min_cycle;Max_cycle;Signal;HPM_P1;HPM_P2
2021/12/07 00:01:36;;;;;;;84.03;61.83;;;;;;;-1.25;91.57;100781.34;4995849;28;20015;-90
2021/12/07 00:04:02;;;;;;;83.47;60.42;;;;;;;-1.06;92.21;100813.72;4982010;28;20011;-91
2021/12/07 00:06:31;;;;;;;83.63;62.00;;;;;;;-1.13;92.16;100806.81;4981650;28;20035;-87
2021/12/07 00:08:56;;;;;;;78.45;60.10;;;;;;;-1.12;91.47;100795.91;4965886;29;20122;-89
2021/12/07 00:11:28;;;;;;;82.22;61.55;;;;;;;-0.94;91.60;100823.19;4974428;28;20030;-88
2021/12/07 00:13:56;;;;;;;94.20;63.00;;;;;;;-1.12;91.75;100806.84;4963126;28;20031;-89
2021/12/07 00:16:22;;;;;;;74.68;57.13;;;;;;;-1.02;92.30;100823.03;4964608;28;20051;-89
2021/12/07 00:18:48;;;;;;;76.47;59.73;;;;;;;-1.08;91.54;100815.38;4966638;28;20473;-89
2021/12/07 00:21:16;;;;;;;84.47;60.40;;;;;;;-1.04;91.55;100807.00;4978036;28;20107;-89
2021/12/07 00:23:41;;;;;;;76.75;59.70;;;;;;;-1.16;92.08;100791.63;4968102;28;20027;-89
2021/12/07 00:26:07;;;;;;;80.82;62.67;;;;;;;-1.15;91.70;100788.28;4981068;28;20049;-90
2021/12/07 00:28:33;;;;;;;84.55;60.67;;;;;;;-1.09;92.36;100798.50;4971394;28;20039;-89
2021/12/07 00:31:09;;;;;;;85.05;61.30;;;;;;;-1.12;92.72;100790.88;4950838;28;20035;-90
2021/12/07 00:33:44;;;;;;;69.63;56.90;;;;;;;-0.99;92.14;100795.31;4945198;29;20063;-90
2021/12/07 00:36:09;;;;;;;77.75;61.10;;;;;;;-1.04;91.82;100780.94;4944699;29;20032;-89
2021/12/07 00:38:35;;;;;;;81.30;61.13;;;;;;;-0.98;92.13;100792.00;4963514;28;20035;-89
2021/12/07 00:41:02;;;;;;;80.40;61.33;;;;;;;-1.05;92.00;100795.22;4947038;29;20035;-90
2021/12/07 00:43:29;;;;;;;78.20;61.25;;;;;;;-1.03;92.59;100786.00;4948809;29;20054;-89
2021/12/07 00:45:58;;;;;;;66.47;56.92;;;;;;;-1.00;91.98;100792.78;4980059;28;20023;-89
2021/12/07 00:48:24;;;;;;;66.88;57.17;;;;;;;-1.04;92.39;100801.97;4978923;28;20087;-90
2021/12/07 00:50:50;;;;;;;80.40;62.45;;;;;;;-1.23;92.15;100767.09;4947636;29;20085;-89
2021/12/07 00:53:17;;;;;;;79.47;59.90;;;;;;;-1.40;92.46;100726.34;4982999;28;20098;-89
2021/12/07 00:55:45;;;;;;;72.60;58.20;;;;;;;-1.12;92.06;100773.19;4967082;28;20070;-88
2021/12/07 00:58:17;;;;;;;95.10;64.50;;;;;;;-1.10;92.50;100774.06;4955119;28;20028;-90
2021/12/07 01:00:44;;;;;;;85.47;62.70;;;;;;;-1.16;92.59;100772.28;4959786;28;20047;-88
2021/12/07 01:03:09;;;;;;;80.63;62.00;;;;;;;-1.12;92.55;100773.19;4949237;29;20026;-89
2021/12/07 01:05:36;;;;;;;68.13;57.67;;;;;;;-1.00;92.14;100783.53;4952043;29;20092;-89
2021/12/07 01:26:52;;;;;;;87.20;61.33;;;;;;;-1.44;92.78;100710.31;4970263;28;20040;-91
2021/12/07 01:29:20;;;;;;;83.30;61.92;;;;;;;-1.49;92.88;100715.25;4969987;28;20027;-89
2021/12/07 01:31:58;;;;;;;77.63;59.67;;;;;;;-1.10;92.57;100776.59;4970896;28;20027;-89
2021/12/07 01:37:42;;;;;;;85.68;59.65;;;;;;;-1.14;92.87;100764.75;4983334;28;20025;-90
2021/12/07 01:43:24;;;;;;;79.97;60.17;;;;;;;-1.14;93.12;100749.59;4994218;28;20103;-91
2021/12/07 01:46:10;;;;;;;85.07;62.75;;;;;;;-1.21;93.09;100748.63;5000315;28;20019;-91
2021/12/07 01:59:33;;;;;;;78.80;60.22;;;;;;;-1.35;93.09;100715.56;4958872;29;20058;-90
2021/12/07 02:01:58;;;;;;;71.03;57.22;;;;;;;-1.09;93.31;100750.53;4972899;28;20019;-88
2021/12/07 02:04:24;;;;;;;80.55;59.60;;;;;;;-1.14;92.87;100734.47;4968534;28;20059;-88
2021/12/07 02:06:49;;;;;;;72.33;57.43;;;;;;;-1.17;92.45;100749.53;4966151;28;20053;-88
2021/12/07 02:09:15;;;;;;;76.70;59.20;;;;;;;-1.08;92.75;100754.78;4951444;28;20023;-88
2021/12/07 02:11:46;;;;;;;85.53;61.03;;;;;;;-1.30;92.36;100724.06;4957809;29;20012;-89
2021/12/07 02:14:16;;;;;;;85.25;62.15;;;;;;;-1.06;92.48;100748.06;4952081;29;20028;-89
2021/12/07 02:16:42;;;;;;;62.83;52.70;;;;;;;-1.23;92.42;100719.13;4975257;28;20022;-89
2021/12/07 02:19:07;;;;;;;71.55;58.20;;;;;;;-1.30;92.17;100713.97;4981718;28;20027;-88
2021/12/07 02:21:36;;;;;;;63.53;55.47;;;;;;;-1.39;92.68;100703.69;4986459;28;20045;-88
2021/12/07 02:24:01;;;;;;;89.35;62.70;;;;;;;-1.29;92.59;100715.69;4976924;28;20042;-88
2021/12/07 02:26:26;;;;;;;82.03;59.80;;;;;;;-1.19;92.50;100731.00;4957293;28;20023;-88
2021/12/07 02:28:57;;;;;;;78.97;61.30;;;;;;;-1.23;92.24;100736.81;4948947;29;20027;-88
2021/12/07 02:31:22;;;;;;;82.20;62.75;;;;;;;-1.11;92.47;100759.75;4945860;29;20024;-88
2021/12/07 02:33:47;;;;;;;85.83;62.40;;;;;;;-1.17;92.93;100747.03;4970294;28;20047;-88
2021/12/07 02:36:13;;;;;;;73.27;58.83;;;;;;;-1.18;92.22;100743.63;4978429;28;20019;-89
2021/12/07 02:38:38;;;;;;;87.93;61.40;;;;;;;-1.12;92.36;100750.47;4982061;28;20027;-89
2021/12/07 02:41:04;;;;;;;74.40;59.13;;;;;;;-1.11;92.65;100762.28;4955227;28;20061;-89
2021/12/07 02:43:30;;;;;;;72.95;57.92;;;;;;;-1.17;92.35;100750.38;4961210;28;20030;-88
2021/12/07 02:45:55;;;;;;;88.63;63.03;;;;;;;-1.17;92.81;100768.06;4961297;28;20027;-88
2021/12/07 02:48:22;;;;;;;79.20;60.03;;;;;;;-1.16;92.57;100757.16;4964659;28;20030;-88
2021/12/07 02:50:50;;;;;;;86.45;64.95;;;;;;;-1.09;93.22;100773.25;4950647;28;21895;-88
2021/12/07 02:53:18;;;;;;;78.35;59.25;;;;;;;-1.23;92.98;100755.31;4966812;28;20023;-89
2021/12/07 02:55:43;;;;;;;69.38;57.38;;;;;;;-1.26;92.91;100749.34;4965580;28;20054;-88
2021/12/07 02:58:09;;;;;;;91.97;61.87;;;;;;;-1.23;93.12;100749.41;4964780;28;20039;-89
2021/12/07 03:00:43;;;;;;;83.35;61.55;;;;;;;-1.19;93.48;100767.19;4958887;28;20015;-88
2021/12/07 03:03:11;;;;;;;86.72;60.83;;;;;;;-1.16;93.13;100773.94;4974096;28;20015;-88
2021/12/07 03:06:44;;;;;;;81.10;61.45;;;;;;;-1.15;93.40;100778.19;4976309;28;20031;-88
2021/12/07 03:27:28;;;;;;;82.63;63.03;;;;;;;-1.10;92.70;100769.03;4966639;29;20058;-90
2021/12/07 03:29:57;;;;;;;92.85;64.53;;;;;;;-1.04;93.12;100789.34;4964809;28;20035;-91
2021/12/07 03:32:22;;;;;;;76.93;59.85;;;;;;;-1.12;92.81;100774.03;4966869;28;20118;-92
2021/12/07 03:34:48;;;;;;;63.37;55.20;;;;;;;-1.19;93.15;100762.13;4967400;28;20477;-89
2021/12/07 03:37:13;;;;;;;64.23;57.13;;;;;;;-1.05;93.37;100774.16;4965103;28;20034;-90
2021/12/07 03:39:39;;;;;;;85.87;61.20;;;;;;;-1.03;93.33;100788.53;4964725;28;20102;-89
2021/12/07 03:42:04;;;;;;;96.63;64.30;;;;;;;-1.03;93.30;100770.84;4951799;28;20027;-89
2021/12/07 03:44:30;;;;;;;76.17;57.30;;;;;;;-1.14;93.73;100772.31;4956530;29;20031;-88
2021/12/07 03:46:56;;;;;;;89.82;61.70;;;;;;;-0.98;93.71;100781.06;5046104;23;20756;-87
2021/12/07 03:49:22;;;;;;;82.88;61.00;;;;;;;-0.97;93.44;100793.69;5006145;28;20022;-86
2021/12/07 03:51:50;;;;;;;79.07;60.67;;;;;;;-0.99;92.74;100785.22;5007379;28;20022;-87
2021/12/07 03:54:15;;;;;;;84.93;63.28;;;;;;;-1.02;93.41;100779.28;5018697;28;20028;-84
2021/12/07 03:56:40;;;;;;;85.97;63.50;;;;;;;-0.97;93.17;100782.72;5028384;28;20025;-86
2021/12/07 03:59:06;;;;;;;76.40;59.00;;;;;;;-0.95;93.48;100787.00;5025445;28;20029;-86
2021/12/07 04:01:31;;;;;;;83.77;61.93;;;;;;;-0.99;93.10;100775.13;5011704;28;20049;-87
2021/12/07 04:04:02;;;;;;;70.97;58.17;;;;;;;-0.95;92.87;100779.44;5006230;28;20049;-87
2021/12/07 04:06:28;;;;;;;74.95;59.45;;;;;;;-0.98;93.66;100792.00;5006794;28;20590;-87
2021/12/07 04:08:53;;;;;;;81.70;60.53;;;;;;;-1.00;93.57;100782.66;5006322;28;20026;-86
2021/12/07 04:11:22;;;;;;;86.07;63.30;;;;;;;-1.08;94.12;100780.03;5002522;28;20373;-87
2021/12/07 04:13:47;;;;;;;85.63;62.88;;;;;;;-0.99;93.32;100774.28;5030805;28;20040;-86
2021/12/07 04:16:17;;;;;;;84.93;61.50;;;;;;;-1.00;93.02;100770.91;5018016;28;20013;-86
2021/12/07 04:18:43;;;;;;;84.13;62.78;;;;;;;-0.99;93.43;100777.66;5019269;28;20018;-83
2021/12/07 04:21:08;;;;;;;88.47;62.30;;;;;;;-0.85;93.61;100797.28;5017227;28;20026;-84
2021/12/07 04:23:38;;;;;;;79.23;62.60;;;;;;;-0.90;93.94;100799.72;5020331;28;20026;-86
2021/12/07 04:26:07;;;;;;;82.80;60.13;;;;;;;-0.84;93.68;100804.03;5032461;28;20049;-86
2021/12/07 04:28:35;;;;;;;75.93;61.35;;;;;;;-1.00;93.26;100775.97;5014611;28;20006;-86
2021/12/07 04:31:01;;;;;;;89.03;63.92;;;;;;;-0.94;93.61;100792.91;5004117;28;20029;-86
2021/12/07 04:33:29;;;;;;;80.50;62.30;;;;;;;-0.94;93.64;100796.28;5013241;28;20025;-87
2021/12/07 04:35:55;;;;;;;84.07;62.70;;;;;;;-0.83;93.17;100790.59;5016475;28;20029;-86
2021/12/07 04:38:21;;;;;;;90.15;64.22;;;;;;;-0.87;93.19;100794.72;5032124;28;20021;-86
2021/12/07 04:40:46;;;;;;;79.83;60.50;;;;;;;-0.86;93.63;100803.16;5032177;28;20025;-86
2021/12/07 04:43:15;;;;;;;90.10;64.50;;;;;;;-1.02;94.01;100781.81;5009926;28;20054;-88
2021/12/07 04:59:10;;;;;;;85.07;61.80;;;;;;;-0.87;93.87;100783.78;5036066;28;20068;-85
2021/12/07 05:01:35;;;;;;;89.10;63.53;;;;;;;-0.78;93.31;100797.44;5004659;28;20010;-85
2021/12/07 05:04:07;;;;;;;83.77;59.77;;;;;;;-0.73;92.95;100807.63;5015922;28;20456;-87
2021/12/07 05:06:35;;;;;;;86.53;62.45;;;;;;;-0.88;93.81;100795.53;4999211;28;20048;-87
2021/12/07 05:09:19;;;;;;;71.80;60.20;;;;;;;-0.89;93.70;100787.94;5015380;28;20037;-86
2021/12/07 05:12:02;;;;;;;94.30;64.40;;;;;;;-0.81;93.77;100799.03;5015279;28;20053;-87
2021/12/07 05:14:43;;;;;;;87.22;62.70;;;;;;;-0.87;94.24;100789.69;5014163;28;20089;-87
2021/12/07 05:17:37;;;;;;;75.30;57.70;;;;;;;-0.75;93.28;100801.69;5021733;28;20045;-84
2021/12/07 05:39:12;;;;;;;94.10;62.78;;;;;;;-0.85;93.38;100793.06;5034750;28;20271;-87
2021/12/07 05:41:37;;;;;;;96.38;61.47;;;;;;;-0.78;93.59;100788.97;5004092;28;20037;-85
2021/12/07 05:44:03;;;;;;;90.37;64.77;;;;;;;-0.85;93.54;100787.19;5026643;28;20027;-87
2021/12/07 05:46:33;;;;;;;76.50;58.42;;;;;;;-0.81;92.99;100783.88;5013453;28;20018;-85
2021/12/07 05:48:59;;;;;;;90.25;62.72;;;;;;;-0.79;92.36;100795.72;5008756;28;20065;-86
2021/12/07 05:51:24;;;;;;;80.53;61.50;;;;;;;-0.79;92.62;100797.41;5010012;28;20038;-87
2021/12/07 05:53:50;;;;;;;81.53;59.27;;;;;;;-0.79;92.71;100793.19;5004610;28;20093;-86
2021/12/07 05:56:15;;;;;;;88.40;64.73;;;;;;;-0.86;92.68;100806.56;5022546;28;20033;-87
2021/12/07 05:58:40;;;;;;;87.93;63.00;;;;;;;-0.81;92.56;100794.84;5015213;28;20074;-87
2021/12/07 06:01:06;;;;;;;75.63;57.50;;;;;;;-0.73;92.41;100813.53;5036220;28;20021;-87
2021/12/07 06:03:31;;;;;;;70.93;58.27;;;;;;;-0.73;92.70;100811.00;5022133;28;20002;-87
2021/12/07 06:06:00;;;;;;;83.70;60.47;;;;;;;-0.77;91.92;100809.22;5018891;28;20174;-87
2021/12/07 06:08:26;;;;;;;80.25;59.75;;;;;;;-0.81;92.36;100817.59;5009970;28;20061;-86
2021/12/07 06:10:54;;;;;;;79.60;59.87;;;;;;;-0.89;91.65;100793.00;4998114;28;20037;-88
2021/12/07 06:13:20;;;;;;;80.63;61.85;;;;;;;-0.78;92.32;100819.28;5010279;28;20281;-86
2021/12/07 06:15:46;;;;;;;81.68;59.90;;;;;;;-0.74;91.88;100821.06;5023732;28;20022;-87
2021/12/07 06:18:12;;;;;;;80.10;58.97;;;;;;;-0.69;92.20;100824.53;5034018;28;20053;-87
2021/12/07 06:20:41;;;;;;;76.68;57.92;;;;;;;-0.71;91.98;100821.13;5019452;28;20363;-87
2021/12/07 06:23:08;;;;;;;84.13;62.10;;;;;;;-0.66;91.28;100833.84;5020468;28;20014;-87
2021/12/07 06:25:34;;;;;;;86.97;62.25;;;;;;;-0.77;91.19;100836.16;5017627;28;20032;-87
2021/12/07 06:27:59;;;;;;;80.20;60.67;;;;;;;-0.90;91.11;100817.41;5017820;28;20010;-86
2021/12/07 06:30:24;;;;;;;94.80;63.03;;;;;;;-0.78;91.07;100824.34;5016497;28;20037;-86
2021/12/07 06:32:50;;;;;;;87.60;63.33;;;;;;;-0.73;91.07;100843.00;5010273;28;20026;-87
2021/12/07 06:35:15;;;;;;;82.83;61.50;;;;;;;-0.75;91.17;100839.56;5015914;28;20019;-87
2021/12/07 06:37:41;;;;;;;90.43;63.70;;;;;;;-0.84;91.01;100829.28;5016712;28;20036;-87
2021/12/07 06:40:10;;;;;;;91.38;62.33;;;;;;;-0.71;91.46;100848.06;5011832;28;20053;-85
2021/12/07 06:42:38;;;;;;;82.63;60.78;;;;;;;-0.69;91.32;100848.94;5015740;28;20026;-87
2021/12/07 06:45:10;;;;;;;86.82;60.88;;;;;;;-1.01;90.63;100816.34;5015955;28;20036;-83
2021/12/07 06:47:37;;;;;;;68.88;55.72;;;;;;;-0.75;90.92;100837.91;5015973;28;20026;-86
2021/12/07 06:50:08;;;;;;;79.45;58.28;;;;;;;-0.80;90.59;100831.06;5014785;28;20109;-87
2021/12/07 06:52:36;;;;;;;74.30;58.45;;;;;;;-0.63;90.95;100842.34;5010878;28;20432;-87
2021/12/07 06:55:04;;;;;;;74.18;60.25;;;;;;;-0.93;90.84;100800.50;5011663;28;20117;-87
2021/12/07 06:57:30;;;;;;;82.70;60.38;;;;;;;-0.63;90.72;100859.19;5011262;28;20018;-87
2021/12/07 06:59:55;;;;;;;82.17;59.53;;;;;;;-0.72;90.04;100854.78;5007537;28;20033;-87
2021/12/07 07:04:54;;;;;;;78.35;60.40;;;;;;;-0.75;90.89;100859.78;5007331;28;20062;-86
2021/12/07 07:07:22;;;;;;;84.73;61.67;;;;;;;-0.72;90.43;100869.94;4978355;28;20071;-85
2021/12/07 07:09:49;;;;;;;89.38;60.58;;;;;;;-0.73;90.47;100873.31;4972647;28;20038;-87
2021/12/07 07:12:14;;;;;;;80.50;61.08;;;;;;;-0.80;90.41;100861.38;4973718;28;20075;-85
2021/12/07 07:14:40;;;;;;;86.87;61.50;;;;;;;-0.80;90.54;100866.41;4993515;28;20077;-86
2021/12/07 07:17:08;;;;;;;78.33;60.03;;;;;;;-0.71;90.02;100866.59;4995895;28;20157;-83
2021/12/07 07:19:33;;;;;;;73.95;56.95;;;;;;;-0.66;89.57;100865.00;4973806;28;20019;-85
2021/12/07 07:22:03;;;;;;;74.03;58.87;;;;;;;-0.80;90.19;100861.38;4975092;28;20019;-83
2021/12/07 07:24:29;;;;;;;61.88;53.45;;;;;;;-1.00;89.72;100839.09;4985087;28;20045;-87
2021/12/07 07:26:54;;;;;;;82.25;60.53;;;;;;;-0.91;90.11;100861.13;4978692;28;20461;-83
2021/12/07 07:29:22;;;;;;;115.57;66.03;;;;;;;-0.78;90.44;100874.88;4973599;28;20011;-84
2021/12/07 07:31:47;;;;;;;86.18;61.30;;;;;;;-0.66;90.60;100889.44;4976425;28;20026;-83
2021/12/07 07:34:13;;;;;;;64.27;56.30;;;;;;;-0.67;89.79;100892.78;4986457;28;20047;-85
2021/12/07 07:36:38;;;;;;;70.40;58.60;;;;;;;-0.78;91.20;100890.03;4990214;28;20063;-89
2021/12/07 07:39:07;;;;;;;79.83;59.87;;;;;;;-0.91;90.74;100876.28;4972301;28;20037;-88
2021/12/07 07:41:34;;;;;;;99.43;63.72;;;;;;;-0.79;90.30;100878.22;4972941;28;20044;-89
2021/12/07 07:44:01;;;;;;;81.15;59.50;;;;;;;-0.72;90.72;100885.09;4973623;28;20500;-89
2021/12/07 07:46:26;;;;;;;;;;;;;;;-0.61;90.07;100896.25;4991074;28;20050;-92
2021/12/07 07:49:03;;;;;;;83.45;61.42;;;;;;;-0.67;89.44;100901.19;4994920;28;19910;-91
2021/12/07 07:51:31;;;;;;;81.00;60.50;;;;;;;-0.65;90.52;100901.22;4999007;28;20077;-91
2021/12/07 07:53:59;;;;;;;83.43;59.97;;;;;;;-0.61;90.70;100905.53;4990108;28;20046;-90
2021/12/07 07:56:26;;;;;;;74.53;61.25;;;;;;;-1.01;91.37;100860.09;4978130;28;20309;-92
2021/12/07 07:59:02;;;;;;;79.15;59.13;;;;;;;-0.73;90.95;100884.25;4980377;28;20110;-90
2021/12/07 08:01:30;;;;;;;75.15;58.78;;;;;;;-0.86;90.80;100866.28;4976375;28;20122;-88
2021/12/07 08:04:00;;;;;;;76.50;60.65;;;;;;;-0.80;90.56;100881.56;4974723;28;20056;-90
2021/12/07 08:06:26;;;;;;;76.70;58.85;;;;;;;-0.78;90.78;100877.38;4964261;29;20062;-90
2021/12/07 08:08:51;;;;;;;71.77;58.83;;;;;;;-0.78;90.54;100879.91;4961495;28;20026;-91
2021/12/07 08:11:20;;;;;;;82.07;62.33;;;;;;;-0.82;91.26;100899.22;4978253;28;20039;-91
2021/12/07 08:13:45;;;;;;;75.32;58.40;;;;;;;-0.83;92.25;100889.94;4963142;28;20039;-90
2021/12/07 08:16:15;;;;;;;77.87;59.70;;;;;;;-0.68;91.72;100917.19;4978443;28;20038;-91
2021/12/07 08:18:52;;;;;;;76.50;57.78;;;;;;;-0.71;91.58;100917.13;4993008;28;20063;-89
2021/12/07 08:21:18;;;;;;;79.78;59.90;;;;;;;-0.84;92.82;100894.94;4986409;28;20019;-90
2021/12/07 08:23:46;;;;;;;62.92;56.20;;;;;;;-0.75;92.02;100900.19;4959868;28;20046;-90
2021/12/07 08:26:31;;;;;;;79.13;60.38;;;;;;;-0.79;91.92;100880.75;4973125;28;20036;-90
2021/12/07 08:29:02;;;;;;;73.97;57.55;;;;;;;-0.60;91.41;100913.13;4991512;28;20023;-92
2021/12/07 08:31:29;;;;;;;90.80;62.10;;;;;;;-0.66;91.56;100915.53;4971610;28;20137;-91
2021/12/07 08:33:55;;;;;;;77.45;57.45;;;;;;;-0.89;90.28;100866.22;4984048;28;20026;-90
2021/12/07 08:36:20;;;;;;;77.78;59.25;;;;;;;-0.62;90.49;100907.22;4983539;28;20033;-90
2021/12/07 08:38:50;;;;;;;66.77;56.60;;;;;;;-0.66;90.41;100907.97;4971770;28;20031;-90
2021/12/07 08:41:17;;;;;;;99.35;64.38;;;;;;;-0.67;90.81;100893.59;4969981;28;20181;-83
2021/12/07 08:43:42;;;;;;;;;;;;;;;-0.48;91.39;100916.72;4962633;28;20081;-82
2021/12/07 08:46:09;;;;;;;77.68;58.83;;;;;;;-0.52;91.30;100907.41;4988369;28;19978;-90
2021/12/07 08:48:35;;;;;;;95.22;61.78;;;;;;;-0.55;90.75;100893.84;4969808;28;20031;-86
2021/12/07 08:51:03;;;;;;;99.38;62.97;;;;;;;-0.57;90.25;100910.69;4966413;28;20117;-86
2021/12/07 08:53:32;;;;;;;87.57;62.28;;;;;;;-0.41;90.49;100921.09;4987676;28;20088;-84
2021/12/07 09:01:34;;;;;;;80.22;59.78;;;;;;;-0.37;89.64;100915.25;4989817;28;20093;-86
2021/12/07 09:04:04;;;;;;;80.93;60.87;;;;;;;-0.22;89.27;100932.41;4969814;28;20034;-87
2021/12/07 09:06:32;;;;;;;115.57;66.20;;;;;;;-0.24;89.41;100934.91;4976871;28;20352;-85
2021/12/07 09:09:01;;;;;;;79.97;59.45;;;;;;;-0.35;89.36;100946.50;4976612;28;20027;-85
2021/12/07 09:11:29;;;;;;;82.55;61.85;;;;;;;-0.47;89.73;100944.56;4972247;28;20066;-86
2021/12/07 09:13:57;;;;;;;83.97;60.10;;;;;;;-0.46;89.53;100922.66;4979646;28;20030;-88
2021/12/07 09:16:22;;;;;;;82.80;61.30;;;;;;;-0.59;89.76;100924.97;4979764;28;20030;-87
2021/12/07 09:19:00;;;;;;;84.00;63.93;;;;;;;-0.32;90.02;100959.16;4979025;28;20074;-86
2021/12/07 09:21:28;;;;;;;94.43;62.92;;;;;;;-0.19;89.17;100968.72;4997081;28;20486;-87
2021/12/07 09:23:57;;;;;;;72.32;56.42;;;;;;;-0.30;89.96;100965.13;4996559;28;20199;-87
2021/12/07 09:26:25;;;;;;;81.93;60.83;;;;;;;-0.32;89.95;100959.16;4989769;28;20055;-87
2021/12/07 09:28:52;;;;;;;77.97;60.85;;;;;;;-0.31;89.88;100970.16;4973993;28;20026;-87
2021/12/07 09:31:18;;;;;;;80.60;60.75;;;;;;;-0.33;89.46;100954.06;4973384;28;20022;-86
2021/12/07 09:33:44;;;;;;;90.55;62.05;;;;;;;-0.40;89.63;100950.56;4972979;28;20041;-85
2021/12/07 09:36:14;;;;;;;85.83;60.30;;;;;;;-0.30;90.35;100960.06;4978264;28;20412;-87
2021/12/07 09:38:42;;;;;;;85.65;62.38;;;;;;;-0.35;90.63;100954.06;4980674;28;20262;-85
2021/12/07 09:41:10;;;;;;;73.55;59.00;;;;;;;-0.32;89.57;100951.56;4957640;29;20023;-85
2021/12/07 09:43:36;;;;;;;76.97;59.42;;;;;;;-0.22;89.62;100970.34;4977881;28;20035;-86
2021/12/07 09:46:06;;;;;;;85.35;61.53;;;;;;;-0.60;90.96;100915.66;4979368;28;20051;-87
2021/12/07 09:48:34;;;;;;;86.70;60.95;;;;;;;-0.38;90.81;100947.28;4980437;28;20011;-85
2021/12/07 09:51:00;;;;;;;91.15;64.22;;;;;;;-0.55;91.05;100931.75;4981624;28;20037;-84
2021/12/07 09:53:27;;;;;;;116.30;67.82;;;;;;;-0.38;90.75;100946.44;4981451;28;20027;-87
2021/12/07 09:55:59;;;;;;;78.30;57.78;;;;;;;-0.19;89.68;100961.13;4981899;28;20054;-87
2021/12/07 09:58:28;;;;;;;80.68;61.95;;;;;;;-0.55;90.88;100943.56;4972898;28;20042;-83
2021/12/07 10:00:54;;;;;;;86.30;58.92;;;;;;;-0.27;90.81;100942.44;4998050;28;20099;-84
2021/12/07 10:03:21;;;;;;;87.43;61.90;;;;;;;-0.48;90.87;100942.00;4982334;28;20035;-86
2021/12/07 10:05:47;;;;;;;84.00;59.92;;;;;;;-0.53;90.92;100946.13;4997281;28;20050;-84
2021/12/07 10:08:12;;;;;;;85.38;61.70;;;;;;;-0.39;90.85;100952.28;4996672;28;20031;-85
2021/12/07 10:10:47;;;;;;;84.97;60.83;;;;;;;-0.36;91.28;100965.00;4980427;28;20027;-85
2021/12/07 10:13:15;;;;;;;70.78;58.15;;;;;;;-0.26;91.33;100951.69;4979256;28;20007;-85
2021/12/07 10:15:41;;;;;;;82.40;62.38;;;;;;;-0.19;90.64;100958.59;4980092;28;20035;-85
2021/12/07 10:18:10;;;;;;;96.00;65.70;;;;;;;-0.51;90.61;100925.09;4980065;28;20022;-81
2021/12/07 10:20:47;;;;;;;89.25;62.00;;;;;;;-0.24;90.90;100950.06;4997798;28;20038;-80
2021/12/07 10:23:21;;;;;;;87.60;61.78;;;;;;;-0.21;90.77;100945.09;4996961;28;20029;-82
2021/12/07 10:26:20;;;;;;;76.13;59.80;;;;;;;-0.17;90.39;100945.97;4990435;28;20046;-81
2021/12/07 10:28:57;;;;;;;90.30;63.10;;;;;;;-0.24;90.79;100939.97;4973675;28;20018;-83
2021/12/07 10:31:39;;;;;;;75.95;59.05;;;;;;;-0.08;90.70;100930.13;4981717;28;20015;-82
2021/12/07 10:34:18;;;;;;;66.63;56.80;;;;;;;-0.10;90.53;100927.56;4981250;28;20019;-81
2021/12/07 10:36:48;;;;;;;79.55;59.78;;;;;;;-0.14;90.50;100919.88;4976660;28;20038;-85
2021/12/07 10:39:25;;;;;;;81.75;59.10;;;;;;;-0.16;90.75;100911.44;4987362;28;20030;-85
2021/12/07 10:41:54;;;;;;;;;;;;;;;-0.12;91.29;100921.63;4972246;28;20022;-82
2021/12/07 10:44:27;;;;;;;71.68;59.30;;;;;;;-0.23;91.25;100906.25;4970695;28;19910;-83
2021/12/07 10:46:53;;;;;;;63.22;56.45;;;;;;;-0.08;91.30;100915.81;4971528;28;20026;-87
2021/12/07 10:49:37;;;;;;;86.47;63.88;;;;;;;-0.21;91.71;100917.25;4971125;28;20093;-86
2021/12/07 10:52:26;;;;;;;62.72;55.47;;;;;;;-0.08;90.57;100925.94;4987159;28;20026;-87
2021/12/07 10:55:13;;;;;;;69.38;56.33;;;;;;;-0.08;90.74;100920.00;4970814;28;20030;-87
2021/12/07 10:57:59;;;;;;;69.97;56.38;;;;;;;-0.04;89.58;100914.19;4985720;28;20026;-85
2021/12/07 11:00:41;;;;;;;84.45;59.35;;;;;;;-0.22;89.63;100897.84;4969331;28;20085;-86
2021/12/07 11:03:21;;;;;;;81.00;61.20;;;;;;;-0.02;90.00;100915.94;4969368;28;20026;-88
2021/12/07 11:05:55;;;;;;;79.32;60.42;;;;;;;-0.25;90.78;100892.75;4949162;29;20039;-85
2021/12/07 11:08:22;;;;;;;82.07;61.15;;;;;;;0.07;90.18;100934.59;4984571;28;20106;-87
2021/12/07 11:10:54;;;;;;;75.93;61.25;;;;;;;-0.02;90.13;100910.00;4969064;28;20095;-87
2021/12/07 11:13:34;;;;;;;83.38;61.38;;;;;;;0.05;88.91;100916.00;4985737;28;20030;-87
2021/12/07 11:16:11;;;;;;;85.90;61.33;;;;;;;0.06;89.00;100922.78;4967709;28;20043;-86
2021/12/07 11:18:44;;;;;;;77.78;59.78;;;;;;;0.15;89.26;100928.84;4961789;28;20038;-86
2021/12/07 11:21:16;;;;;;;77.25;60.22;;;;;;;0.24;89.49;100940.81;4968936;28;20030;-85
2021/12/07 11:23:48;;;;;;;74.20;59.75;;;;;;;0.06;89.17;100907.59;4965956;28;20035;-84
2021/12/07 11:31:32;;;;;;;77.13;59.08;;;;;;;0.24;89.79;100923.09;4969359;29;20086;-84
2021/12/07 11:34:15;;;;;;;79.90;60.78;;;;;;;0.14;90.00;100927.16;4966902;28;20014;-83
2021/12/07 11:36:42;;;;;;;72.05;59.05;;;;;;;0.31;89.54;100922.38;4996364;28;20019;-85
2021/12/07 11:39:23;;;;;;;76.38;60.83;;;;;;;0.44;88.91;100920.88;5003531;28;20017;-86
2021/12/07 11:41:58;;;;;;;81.18;60.97;;;;;;;0.24;90.16;100899.47;4996198;28;20038;-86
2021/12/07 11:44:23;;;;;;;79.18;60.08;;;;;;;0.40;88.70;100903.09;4967081;28;20019;-86
2021/12/07 11:46:52;;;;;;;76.17;59.73;;;;;;;0.26;89.15;100882.66;4963599;29;20050;-85
2021/12/07 11:49:24;;;;;;;80.72;61.28;;;;;;;0.23;88.53;100890.19;4966301;28;20058;-87
2021/12/07 11:52:02;;;;;;;77.35;58.53;;;;;;;0.23;89.03;100905.38;4953306;28;20077;-87
2021/12/07 11:54:31;;;;;;;83.85;62.17;;;;;;;0.45;89.12;100917.53;4968276;28;20026;-86
2021/12/07 11:59:29;;;;;;;73.70;58.28;;;;;;;0.35;88.19;100890.34;5044102;23;20066;-90
2021/12/07 12:01:55;;;;;;;78.10;60.22;;;;;;;0.26;88.88;100873.38;5006590;28;20041;-85
2021/12/07 12:04:21;;;;;;;76.57;59.90;;;;;;;0.59;87.35;100915.22;4983018;28;20026;-86
2021/12/07 12:06:51;;;;;;;90.70;63.47;;;;;;;0.34;88.48;100914.81;4988833;28;20034;-88
2021/12/07 12:09:17;;;;;;;83.20;61.70;;;;;;;0.42;88.06;100931.81;4986566;28;20045;-87
2021/12/07 12:12:01;;;;;;;;;;;;;;;0.41;89.16;100937.69;4987638;28;20030;-87
2021/12/07 12:14:50;;;;;;;98.57;67.05;;;;;;;0.33;89.73;100928.31;5002763;28;19913;-84
2021/12/07 12:17:40;;;;;;;85.07;62.13;;;;;;;0.46;88.74;100920.91;4991890;28;20041;-86
2021/12/07 12:20:06;;;;;;;74.88;59.25;;;;;;;0.51;89.53;100917.63;4994514;28;20018;-85
2021/12/07 12:23:16;;;;;;;78.10;61.60;;;;;;;0.36;89.29;100924.97;5025195;28;20113;-86
2021/12/07 12:25:41;;;;;;;85.18;61.45;;;;;;;0.50;88.95;100926.03;5023497;28;20144;-86
2021/12/07 12:28:07;;;;;;;95.60;64.23;;;;;;;0.50;88.84;100931.09;4991467;28;20071;-88
2021/12/07 12:30:41;;;;;;;77.20;60.80;;;;;;;0.45;89.22;100931.88;4987288;28;20046;-87
2021/12/07 12:33:09;;;;;;;75.47;59.88;;;;;;;0.42;89.70;100947.00;4992061;28;20485;-87
2021/12/07 12:35:42;;;;;;;97.20;64.88;;;;;;;0.48;89.34;100942.06;5007186;28;20044;-88
2021/12/07 12:38:33;;;;;;;92.82;64.10;;;;;;;0.47;88.47;100953.00;5003922;28;20521;-86
2021/12/07 12:41:08;;;;;;;87.63;63.72;;;;;;;0.43;89.49;100954.63;4992981;28;20030;-87
2021/12/07 12:43:47;;;;;;;91.65;64.05;;;;;;;0.50;89.41;100953.88;5019538;28;20060;-85
2021/12/07 12:46:19;;;;;;;84.50;63.67;;;;;;;0.46;88.76;100933.56;5006439;28;20030;-86
2021/12/07 12:48:48;;;;;;;85.93;62.90;;;;;;;0.37;89.66;100946.94;5022551;28;20025;-86
2021/12/07 12:51:15;;;;;;;79.72;62.08;;;;;;;0.46;89.51;100936.97;5022874;28;20053;-86
2021/12/07 12:53:44;;;;;;;83.22;63.00;;;;;;;0.16;89.79;100897.69;5021029;28;20057;-90
2021/12/07 12:56:20;;;;;;;78.13;60.25;;;;;;;0.37;88.82;100919.09;4987456;28;20621;-87
2021/12/07 12:58:55;;;;;;;82.95;59.33;;;;;;;0.61;88.86;100932.97;4988544;28;20037;-88
2021/12/07 13:01:28;;;;;;;83.40;63.78;;;;;;;0.21;89.63;100876.63;4997674;28;20010;-90
2021/12/07 13:04:04;;;;;;;78.57;59.95;;;;;;;0.29;90.00;100890.28;5009879;28;20027;-86
2021/12/07 13:06:43;;;;;;;78.70;62.03;;;;;;;0.55;89.48;100918.53;5012231;28;20026;-91